WetterOnline ( https://www.wetteronline.de )

Wetter aktuell Odenwald (in 400m)

Aktuelles Wetter: Michelstadt-Vielbrunn (455m)

6-stündlich | Neueste Meldungen
Ortszeit Temperatur Wetter
Mo, 27.06. 14:00 18.2° C bewölkt
Mo, 27.06. 8:00 16.1° C bedeckt
Mo, 27.06. 2:00 16.1° C leichter Regen
So, 26.06. 20:00 23.9° C leicht bewölkt
So, 26.06. 14:00 23.6° C wolkig
So, 26.06. 8:00 18.9° C wolkig
So, 26.06. 2:00 16.9° C bewölkt
Sa, 25.06. 20:00 23.9° C leicht bewölkt
Ortszeit Temperatur Wetter
Mo, 27.06. 16:30 19.7° C wolkig
Mo, 27.06. 16:20 19.7° C wolkig
Mo, 27.06. 16:10 18.6° C leichter Regen
Mo, 27.06. 16:00 18.6° C wolkig
Mo, 27.06. 15:50 18.6° C wolkig
Mo, 27.06. 15:40 18.9° C bedeckt
Mo, 27.06. 15:30 19.9° C bewölkt
Mo, 27.06. 15:00 18.0° C bewölkt
Mo, 27.06. 14:30 17.2° C leichter Regen
Mo, 27.06. 14:00 18.2° C bewölkt
Mo, 27.06. 13:30 19.5° C wolkig
Ortszeit Relative Feuchte Sichtweite
Mo, 27.06. 14:00 85% 35 km
Mo, 27.06. 8:00 97% 6 km
Mo, 27.06. 2:00 95% 16 km
So, 26.06. 20:00 53% 65 km
So, 26.06. 14:00 54% >70 km
So, 26.06. 8:00 70% 60 km
So, 26.06. 2:00 72% 65 km
Sa, 25.06. 20:00 44% >70 km
Ortszeit Relative Feuchte Sichtweite
Mo, 27.06. 16:30 71% >70 km
Mo, 27.06. 16:20 71% -
Mo, 27.06. 16:10 72% -
Mo, 27.06. 16:00 79% 60 km
Mo, 27.06. 15:50 79% -
Mo, 27.06. 15:40 76% -
Mo, 27.06. 15:30 79% 40 km
Mo, 27.06. 15:00 87% 35 km
Mo, 27.06. 14:30 90% 17 km
Mo, 27.06. 14:00 85% 35 km
Mo, 27.06. 13:30 82% 60 km
Ortszeit Niederschlagsmenge Niederschlagsart
Mo, 27.06. 14:00 3 l/m2 in 6 Std. Regen
Mo, 27.06. 8:00 11 l/m2 in 12 Std. Regen
Mo, 27.06. 2:00 1 l/m2 in 6 Std. Regen
So, 26.06. 20:00 0.0 l/m2 in 12 Std. -
So, 26.06. 14:00 0.0 l/m2 in 6 Std. -
So, 26.06. 8:00 0.1 l/m2 in 12 Std. Regen
So, 26.06. 2:00 0.0 l/m2 in 6 Std. -
Sa, 25.06. 20:00 0.0 l/m2 in 12 Std. -
Ortszeit Niederschlagsmenge Niederschlagsart
Mo, 27.06. 16:30 0.1 l/m2 in 1 Std. Schneeregen
Mo, 27.06. 16:20 keine Meldung -
Mo, 27.06. 16:10 keine Meldung -
Mo, 27.06. 16:00 0.1 l/m2 in 1 Std. Regen
Mo, 27.06. 15:50 keine Meldung -
Mo, 27.06. 15:40 keine Meldung -
Mo, 27.06. 15:30 0.0 l/m2 in 1 Std. -
Mo, 27.06. 15:00 0.4 l/m2 in 1 Std. Regen
Mo, 27.06. 14:30 0.1 l/m2 in 1 Std. -
Mo, 27.06. 14:00 0.1 l/m2 in 1 Std. Regen
Mo, 27.06. 13:30 0.1 l/m2 in 1 Std. Schnee
Ortszeit Stärke Spitze Richtung
km/h Bft. km/h Grad Sektor
Mo, 27.06. 14:00 13 3 31 250° W
Mo, 27.06. 8:00 9 2 41 260° W
Mo, 27.06. 2:00 22 4 43 300° NW
So, 26.06. 20:00 13 3 26 360° N
So, 26.06. 14:00 7 2 22 320° NW
So, 26.06. 8:00 4 1 22 260° W
So, 26.06. 2:00 7 2 9 160° S
Sa, 25.06. 20:00 7 2 25 160° S
Ortszeit Stärke Spitze Richtung
km/h Bft. km/h Grad Sektor
Mo, 27.06. 16:30 11 2 25 260° W
Mo, 27.06. 16:20 11 2 - 260° W
Mo, 27.06. 16:10 14 3 - 250° W
Mo, 27.06. 16:00 18 3 32 250° W
Mo, 27.06. 15:50 18 3 - 250° W
Mo, 27.06. 15:40 19 3 - 240° SW
Mo, 27.06. 15:30 11 2 20 240° SW
Mo, 27.06. 15:00 11 2 29 250° W
Mo, 27.06. 14:30 14 3 29 260° W
Mo, 27.06. 14:00 13 3 31 250° W
Mo, 27.06. 13:30 15 3 28 240° SW
Ortszeit Untergrenze Bedeckung Gattung
total tief tief mittel hoch
Mo, 27.06. 14:00 450 m 8/8 7/8 - - -
Mo, 27.06. 8:00 60 m 8/8 8/8 - - -
Mo, 27.06. 2:00 120 m 8/8 1/8 - - -
So, 26.06. 20:00 9000 m 3/8 0/8 - - -
So, 26.06. 14:00 1230 m 6/8 6/8 - - -
So, 26.06. 8:00 2700 m 6/8 6/8 - - -
So, 26.06. 2:00 3000 m 7/8 7/8 - - -
Sa, 25.06. 20:00 8700 m 4/8 0/8 - - -
Ortszeit Bedeckungsgrad in Achtel und Wolkenuntergrenze
Mo, 27.06. 16:30 1(1500m) 6(4200m) 8(4800m)
Mo, 27.06. 16:20 1(1500m) 6(4200m) 8(4800m)
Mo, 27.06. 16:10 8
Mo, 27.06. 16:00 2(690m) 7(3300m) 8(4200m)
Mo, 27.06. 15:50 2(690m) 7(3300m) 8(4200m)
Mo, 27.06. 15:40 8
Mo, 27.06. 15:30 6(990m) 8(3300m)
Mo, 27.06. 15:00 7(900m)
Mo, 27.06. 14:30 8(780m)
Mo, 27.06. 14:00 3(450m) 7(630m) 8(3600m)
Mo, 27.06. 13:30 2(270m) 4(420m) 5(5100m)
Ortszeit Luftdruck NN (hPa) Tendenz (hPa in 3 Std.)
Mo, 27.06. 14:00 1017 + 1,3
Mo, 27.06. 8:00 1015 + 1,5
Mo, 27.06. 2:00 1014 + 1,4
So, 26.06. 20:00 1012 - 0,8
So, 26.06. 14:00 1014 - 0,3
So, 26.06. 8:00 1014 + 0,6
So, 26.06. 2:00 1013 + 0,3
Sa, 25.06. 20:00 1011 - 0,8
Ortszeit Luftdruck NN (hPa) Tendenz (hPa in 3 Std.)
Mo, 27.06. 16:30 1017 + 0,8
Mo, 27.06. 16:20 1017 keine Meldung
Mo, 27.06. 16:10 1018 keine Meldung
Mo, 27.06. 16:00 1018 + 1,1
Mo, 27.06. 15:50 1018 keine Meldung
Mo, 27.06. 15:40 1018 keine Meldung
Mo, 27.06. 15:30 1017 + 0,9
Mo, 27.06. 15:00 1017 + 1,1
Mo, 27.06. 14:30 1017 + 0,8
Mo, 27.06. 14:00 1017 + 1,3
Mo, 27.06. 13:30 1017 + 1,6
Ortszeit Schneehöhe (cm)
Mo, 27.06. 14:00 0
Mo, 27.06. 8:00 0
Mo, 27.06. 2:00 0
So, 26.06. 20:00 0
So, 26.06. 14:00 0
So, 26.06. 8:00 0
So, 26.06. 2:00 0
Sa, 25.06. 20:00 0
Ortszeit Schneehöhe (cm)
Mo, 27.06. 16:30 0
Mo, 27.06. 16:20 0
Mo, 27.06. 16:10 0
Mo, 27.06. 16:00 0
Mo, 27.06. 15:50 0
Mo, 27.06. 15:40 0
Mo, 27.06. 15:30 0
Mo, 27.06. 15:00 0
Mo, 27.06. 14:30 0
Mo, 27.06. 14:00 0
Mo, 27.06. 13:30 0
Link zu dieser Seite / Seite empfehlen

Das Wetter in ...